Terminal Aerodrome Forecast
Issued by NWS

Home | Current Version | Previous Version | Text Only | Print | Product List | Glossary On
Versions: 1 2 3 4 5 6 7 8 9 10 11 12 13 14 15 16 17 18 19 20 21 22 23 24 25
000
FTUS44 KSJT 241100
TAFJCT
TAF
KJCT 241124Z 2412/2512 17011G18KT P6SM OVC015
      TEMPO 2413/2416 -SHRA BKN080
     FM241600 19010G16KT P6SM OVC015
     FM241800 23009G16KT P6SM SKC
     FM250000 17005KT P6SM SKC
     FM250900 17006KT P6SM BKN015=

USA.gov is the U.S. government's official web portal to all federal, state and local government web resources and services.